sensor_id;sensor_type;location;lat;lon;timestamp;P1;durP1;ratioP1;P2;durP2;ratioP2
72951;SDS011;61102;51.956;5.878;2022-09-09T00:06:30;1.63;;;0.50;;
72951;SDS011;61102;51.956;5.878;2022-09-09T00:11:49;1.75;;;0.50;;
72951;SDS011;61102;51.956;5.878;2022-09-09T00:14:39;1.80;;;0.40;;
72951;SDS011;61102;51.956;5.878;2022-09-09T00:20:37;1.63;;;0.50;;
72951;SDS011;61102;51.956;5.878;2022-09-09T00:23:12;1.48;;;0.50;;
72951;SDS011;61102;51.956;5.878;2022-09-09T00:28:40;1.55;;;0.50;;
72951;SDS011;61102;51.956;5.878;2022-09-09T00:31:15;1.25;;;0.38;;
72951;SDS011;61102;51.956;5.878;2022-09-09T00:33:46;0.93;;;0.43;;
72951;SDS011;61102;51.956;5.878;2022-09-09T00:36:14;1.67;;;0.35;;
72951;SDS011;61102;51.956;5.878;2022-09-09T00:38:51;1.40;;;0.47;;
72951;SDS011;61102;51.956;5.878;2022-09-09T00:44:33;1.23;;;0.28;;
72951;SDS011;61102;51.956;5.878;2022-09-09T00:47:12;1.25;;;0.35;;
72951;SDS011;61102;51.956;5.878;2022-09-09T00:57:46;0.25;;;0.22;;
72951;SDS011;61102;51.956;5.878;2022-09-09T01:00:22;1.08;;;0.30;;
72951;SDS011;61102;51.956;5.878;2022-09-09T01:11:04;1.60;;;0.40;;
72951;SDS011;61102;51.956;5.878;2022-09-09T01:13:34;1.13;;;0.38;;
72951;SDS011;61102;51.956;5.878;2022-09-09T01:16:07;0.85;;;0.30;;
72951;SDS011;61102;51.956;5.878;2022-09-09T01:18:44;2.42;;;0.45;;
72951;SDS011;61102;51.956;5.878;2022-09-09T01:27:22;1.45;;;0.30;;
72951;SDS011;61102;51.956;5.878;2022-09-09T01:29:50;1.45;;;0.35;;
72951;SDS011;61102;51.956;5.878;2022-09-09T01:35:02;0.82;;;0.30;;
72951;SDS011;61102;51.956;5.878;2022-09-09T01:37:29;0.98;;;0.30;;
72951;SDS011;61102;51.956;5.878;2022-09-09T01:39:55;1.10;;;0.40;;
72951;SDS011;61102;51.956;5.878;2022-09-09T01:42:21;0.80;;;0.20;;
72951;SDS011;61102;51.956;5.878;2022-09-09T01:44:47;1.48;;;0.22;;
72951;SDS011;61102;51.956;5.878;2022-09-09T01:47:14;1.42;;;0.40;;
72951;SDS011;61102;51.956;5.878;2022-09-09T01:52:35;1.35;;;0.38;;
72951;SDS011;61102;51.956;5.878;2022-09-09T01:55:04;2.13;;;0.50;;
72951;SDS011;61102;51.956;5.878;2022-09-09T01:57:42;1.60;;;0.50;;
72951;SDS011;61102;51.956;5.878;2022-09-09T02:02:48;2.53;;;0.55;;
72951;SDS011;61102;51.956;5.878;2022-09-09T02:08:23;1.70;;;0.38;;
72951;SDS011;61102;51.956;5.878;2022-09-09T02:11:14;0.57;;;0.30;;
72951;SDS011;61102;51.956;5.878;2022-09-09T02:13:48;1.67;;;0.47;;
72951;SDS011;61102;51.956;5.878;2022-09-09T02:16:21;1.10;;;0.40;;
72951;SDS011;61102;51.956;5.878;2022-09-09T02:18:53;2.58;;;0.40;;
72951;SDS011;61102;51.956;5.878;2022-09-09T02:21:37;0.90;;;0.38;;
72951;SDS011;61102;51.956;5.878;2022-09-09T02:24:06;0.63;;;0.40;;
72951;SDS011;61102;51.956;5.878;2022-09-09T02:26:40;1.45;;;0.43;;
72951;SDS011;61102;51.956;5.878;2022-09-09T02:29:14;1.33;;;0.50;;
72951;SDS011;61102;51.956;5.878;2022-09-09T02:31:46;1.10;;;0.40;;
72951;SDS011;61102;51.956;5.878;2022-09-09T02:34:20;1.48;;;0.40;;
72951;SDS011;61102;51.956;5.878;2022-09-09T02:36:49;0.80;;;0.40;;
72951;SDS011;61102;51.956;5.878;2022-09-09T02:39:19;1.05;;;0.60;;
72951;SDS011;61102;51.956;5.878;2022-09-09T02:41:46;1.02;;;0.40;;
72951;SDS011;61102;51.956;5.878;2022-09-09T02:44:17;0.90;;;0.40;;
72951;SDS011;61102;51.956;5.878;2022-09-09T02:54:59;1.38;;;0.45;;
72951;SDS011;61102;51.956;5.878;2022-09-09T02:57:37;1.02;;;0.40;;
72951;SDS011;61102;51.956;5.878;2022-09-09T03:00:04;1.05;;;0.47;;
72951;SDS011;61102;51.956;5.878;2022-09-09T03:02:33;2.58;;;0.73;;
72951;SDS011;61102;51.956;5.878;2022-09-09T03:05:05;1.77;;;0.40;;
72951;SDS011;61102;51.956;5.878;2022-09-09T03:07:32;3.88;;;0.70;;
72951;SDS011;61102;51.956;5.878;2022-09-09T03:09:58;1.95;;;0.50;;
72951;SDS011;61102;51.956;5.878;2022-09-09T03:12:26;2.28;;;0.52;;
72951;SDS011;61102;51.956;5.878;2022-09-09T03:14:52;0.85;;;0.43;;
72951;SDS011;61102;51.956;5.878;2022-09-09T03:17:19;0.98;;;0.50;;
72951;SDS011;61102;51.956;5.878;2022-09-09T03:19:50;2.00;;;0.50;;
72951;SDS011;61102;51.956;5.878;2022-09-09T03:22:18;0.90;;;0.50;;
72951;SDS011;61102;51.956;5.878;2022-09-09T03:24:45;1.75;;;0.63;;
72951;SDS011;61102;51.956;5.878;2022-09-09T03:27:12;1.00;;;0.43;;
72951;SDS011;61102;51.956;5.878;2022-09-09T03:29:40;2.60;;;0.55;;
72951;SDS011;61102;51.956;5.878;2022-09-09T03:32:10;1.88;;;0.75;;
72951;SDS011;61102;51.956;5.878;2022-09-09T03:34:38;1.75;;;0.60;;
72951;SDS011;61102;51.956;5.878;2022-09-09T03:37:10;2.80;;;0.50;;
72951;SDS011;61102;51.956;5.878;2022-09-09T03:39:37;2.45;;;0.60;;
72951;SDS011;61102;51.956;5.878;2022-09-09T03:42:03;3.47;;;0.80;;
72951;SDS011;61102;51.956;5.878;2022-09-09T03:46:56;1.75;;;0.63;;
72951;SDS011;61102;51.956;5.878;2022-09-09T03:49:22;0.93;;;0.50;;
72951;SDS011;61102;51.956;5.878;2022-09-09T03:51:49;1.80;;;0.60;;
72951;SDS011;61102;51.956;5.878;2022-09-09T03:54:15;0.98;;;0.50;;
72951;SDS011;61102;51.956;5.878;2022-09-09T03:56:41;2.03;;;0.50;;
72951;SDS011;61102;51.956;5.878;2022-09-09T03:59:09;3.38;;;0.63;;
72951;SDS011;61102;51.956;5.878;2022-09-09T04:01:35;2.35;;;0.60;;
72951;SDS011;61102;51.956;5.878;2022-09-09T04:04:01;2.28;;;0.70;;
72951;SDS011;61102;51.956;5.878;2022-09-09T04:06:28;2.28;;;0.50;;
72951;SDS011;61102;51.956;5.878;2022-09-09T04:08:55;3.42;;;0.68;;
72951;SDS011;61102;51.956;5.878;2022-09-09T04:11:22;1.05;;;0.50;;
72951;SDS011;61102;51.956;5.878;2022-09-09T04:13:51;1.58;;;0.40;;
72951;SDS011;61102;51.956;5.878;2022-09-09T04:16:18;2.60;;;0.60;;
72951;SDS011;61102;51.956;5.878;2022-09-09T04:18:46;2.95;;;0.80;;
72951;SDS011;61102;51.956;5.878;2022-09-09T04:21:14;1.63;;;0.50;;
72951;SDS011;61102;51.956;5.878;2022-09-09T04:23:41;1.33;;;0.50;;
72951;SDS011;61102;51.956;5.878;2022-09-09T04:26:08;1.50;;;0.50;;
72951;SDS011;61102;51.956;5.878;2022-09-09T04:28:35;1.77;;;0.65;;
72951;SDS011;61102;51.956;5.878;2022-09-09T04:31:07;2.55;;;0.60;;
72951;SDS011;61102;51.956;5.878;2022-09-09T04:33:35;1.48;;;0.50;;
72951;SDS011;61102;51.956;5.878;2022-09-09T04:36:02;2.38;;;0.65;;
72951;SDS011;61102;51.956;5.878;2022-09-09T04:38:28;2.72;;;0.70;;
72951;SDS011;61102;51.956;5.878;2022-09-09T04:40:55;1.33;;;0.65;;
72951;SDS011;61102;51.956;5.878;2022-09-09T04:43:21;2.95;;;0.70;;
72951;SDS011;61102;51.956;5.878;2022-09-09T04:45:49;1.15;;;0.47;;
72951;SDS011;61102;51.956;5.878;2022-09-09T04:48:17;1.48;;;0.60;;
72951;SDS011;61102;51.956;5.878;2022-09-09T04:50:44;2.58;;;0.75;;
72951;SDS011;61102;51.956;5.878;2022-09-09T04:53:31;1.40;;;0.63;;
72951;SDS011;61102;51.956;5.878;2022-09-09T04:56:07;3.13;;;0.88;;
72951;SDS011;61102;51.956;5.878;2022-09-09T04:58:40;4.30;;;0.60;;
72951;SDS011;61102;51.956;5.878;2022-09-09T05:01:11;3.88;;;0.70;;
72951;SDS011;61102;51.956;5.878;2022-09-09T05:03:40;3.22;;;0.68;;
72951;SDS011;61102;51.956;5.878;2022-09-09T05:06:10;3.67;;;0.70;;
72951;SDS011;61102;51.956;5.878;2022-09-09T05:08:39;4.20;;;0.75;;
72951;SDS011;61102;51.956;5.878;2022-09-09T05:11:17;1.23;;;0.50;;
72951;SDS011;61102;51.956;5.878;2022-09-09T05:13:51;2.28;;;0.60;;
72951;SDS011;61102;51.956;5.878;2022-09-09T05:16:19;3.22;;;0.80;;
72951;SDS011;61102;51.956;5.878;2022-09-09T05:21:13;4.90;;;0.73;;
72951;SDS011;61102;51.956;5.878;2022-09-09T05:23:40;2.60;;;0.77;;
72951;SDS011;61102;51.956;5.878;2022-09-09T05:26:07;4.05;;;0.70;;
72951;SDS011;61102;51.956;5.878;2022-09-09T05:28:37;2.35;;;0.60;;
72951;SDS011;61102;51.956;5.878;2022-09-09T05:31:05;2.67;;;0.57;;
72951;SDS011;61102;51.956;5.878;2022-09-09T05:33:35;1.88;;;0.60;;
72951;SDS011;61102;51.956;5.878;2022-09-09T05:36:02;2.33;;;0.70;;
72951;SDS011;61102;51.956;5.878;2022-09-09T05:38:31;2.88;;;0.80;;
72951;SDS011;61102;51.956;5.878;2022-09-09T05:40:59;4.03;;;0.90;;
72951;SDS011;61102;51.956;5.878;2022-09-09T05:43:26;3.83;;;0.70;;
72951;SDS011;61102;51.956;5.878;2022-09-09T05:46:03;4.65;;;0.90;;
72951;SDS011;61102;51.956;5.878;2022-09-09T05:48:35;3.88;;;0.90;;
72951;SDS011;61102;51.956;5.878;2022-09-09T05:51:03;3.15;;;0.73;;
72951;SDS011;61102;51.956;5.878;2022-09-09T05:53:32;3.67;;;0.90;;
72951;SDS011;61102;51.956;5.878;2022-09-09T05:58:33;4.40;;;0.85;;
72951;SDS011;61102;51.956;5.878;2022-09-09T06:01:07;3.58;;;0.75;;
72951;SDS011;61102;51.956;5.878;2022-09-09T06:03:37;4.35;;;0.88;;
72951;SDS011;61102;51.956;5.878;2022-09-09T06:06:05;5.95;;;1.15;;
72951;SDS011;61102;51.956;5.878;2022-09-09T06:08:33;3.55;;;0.80;;
72951;SDS011;61102;51.956;5.878;2022-09-09T06:11:03;3.25;;;0.73;;
72951;SDS011;61102;51.956;5.878;2022-09-09T06:13:35;5.20;;;0.85;;
72951;SDS011;61102;51.956;5.878;2022-09-09T06:16:04;4.63;;;0.88;;
72951;SDS011;61102;51.956;5.878;2022-09-09T06:18:33;5.88;;;1.13;;
72951;SDS011;61102;51.956;5.878;2022-09-09T06:20:59;3.50;;;0.75;;
72951;SDS011;61102;51.956;5.878;2022-09-09T06:23:27;6.55;;;1.05;;
72951;SDS011;61102;51.956;5.878;2022-09-09T06:28:52;3.50;;;0.80;;
72951;SDS011;61102;51.956;5.878;2022-09-09T06:31:21;5.97;;;0.90;;
72951;SDS011;61102;51.956;5.878;2022-09-09T06:33:50;5.18;;;0.90;;
72951;SDS011;61102;51.956;5.878;2022-09-09T06:36:19;3.22;;;0.63;;
72951;SDS011;61102;51.956;5.878;2022-09-09T06:38:46;7.00;;;0.85;;
72951;SDS011;61102;51.956;5.878;2022-09-09T06:41:15;3.67;;;0.70;;
72951;SDS011;61102;51.956;5.878;2022-09-09T06:43:44;6.00;;;1.05;;
72951;SDS011;61102;51.956;5.878;2022-09-09T06:46:13;3.97;;;0.70;;
72951;SDS011;61102;51.956;5.878;2022-09-09T06:48:41;6.38;;;1.20;;
72951;SDS011;61102;51.956;5.878;2022-09-09T06:51:15;5.90;;;0.80;;
72951;SDS011;61102;51.956;5.878;2022-09-09T06:53:44;4.50;;;0.88;;
72951;SDS011;61102;51.956;5.878;2022-09-09T06:58:51;4.43;;;0.80;;
72951;SDS011;61102;51.956;5.878;2022-09-09T07:01:24;5.93;;;0.80;;
72951;SDS011;61102;51.956;5.878;2022-09-09T07:03:54;3.95;;;0.77;;
72951;SDS011;61102;51.956;5.878;2022-09-09T07:06:22;5.55;;;1.00;;
72951;SDS011;61102;51.956;5.878;2022-09-09T07:08:51;5.15;;;0.80;;
72951;SDS011;61102;51.956;5.878;2022-09-09T07:11:24;4.10;;;0.80;;
72951;SDS011;61102;51.956;5.878;2022-09-09T07:13:52;5.93;;;0.90;;
72951;SDS011;61102;51.956;5.878;2022-09-09T07:16:20;6.32;;;1.00;;
72951;SDS011;61102;51.956;5.878;2022-09-09T07:18:50;8.82;;;1.00;;
72951;SDS011;61102;51.956;5.878;2022-09-09T07:23:44;5.97;;;1.17;;
72951;SDS011;61102;51.956;5.878;2022-09-09T07:26:12;7.70;;;1.00;;
72951;SDS011;61102;51.956;5.878;2022-09-09T07:28:40;6.82;;;1.00;;
72951;SDS011;61102;51.956;5.878;2022-09-09T07:31:13;6.93;;;1.25;;
72951;SDS011;61102;51.956;5.878;2022-09-09T07:33:42;4.38;;;0.90;;
72951;SDS011;61102;51.956;5.878;2022-09-09T07:38:42;7.93;;;1.00;;
72951;SDS011;61102;51.956;5.878;2022-09-09T07:41:14;5.32;;;0.90;;
72951;SDS011;61102;51.956;5.878;2022-09-09T07:43:44;7.18;;;0.88;;
72951;SDS011;61102;51.956;5.878;2022-09-09T07:46:14;5.90;;;1.00;;
72951;SDS011;61102;51.956;5.878;2022-09-09T07:48:43;6.72;;;1.00;;
72951;SDS011;61102;51.956;5.878;2022-09-09T07:51:15;4.40;;;0.90;;
72951;SDS011;61102;51.956;5.878;2022-09-09T07:53:44;5.43;;;1.00;;
72951;SDS011;61102;51.956;5.878;2022-09-09T07:56:16;8.45;;;1.23;;
72951;SDS011;61102;51.956;5.878;2022-09-09T07:58:46;7.63;;;1.52;;
72951;SDS011;61102;51.956;5.878;2022-09-09T08:01:13;5.28;;;0.70;;
72951;SDS011;61102;51.956;5.878;2022-09-09T08:03:44;2.65;;;0.63;;
72951;SDS011;61102;51.956;5.878;2022-09-09T08:06:12;2.88;;;0.60;;
72951;SDS011;61102;51.956;5.878;2022-09-09T08:08:39;7.55;;;1.20;;
72951;SDS011;61102;51.956;5.878;2022-09-09T08:11:09;4.55;;;1.00;;
72951;SDS011;61102;51.956;5.878;2022-09-09T08:13:41;8.68;;;1.70;;
72951;SDS011;61102;51.956;5.878;2022-09-09T08:16:10;4.82;;;0.90;;
72951;SDS011;61102;51.956;5.878;2022-09-09T08:18:41;4.50;;;0.90;;
72951;SDS011;61102;51.956;5.878;2022-09-09T08:21:11;5.93;;;0.80;;
72951;SDS011;61102;51.956;5.878;2022-09-09T08:23:40;8.98;;;0.80;;
72951;SDS011;61102;51.956;5.878;2022-09-09T08:26:15;5.90;;;1.00;;
72951;SDS011;61102;51.956;5.878;2022-09-09T08:28:43;5.80;;;0.80;;
72951;SDS011;61102;51.956;5.878;2022-09-09T08:33:41;7.95;;;0.93;;
72951;SDS011;61102;51.956;5.878;2022-09-09T08:36:09;3.33;;;0.63;;
72951;SDS011;61102;51.956;5.878;2022-09-09T08:38:37;5.95;;;0.75;;
72951;SDS011;61102;51.956;5.878;2022-09-09T08:43:48;5.75;;;1.00;;
72951;SDS011;61102;51.956;5.878;2022-09-09T08:46:22;6.00;;;0.90;;
72951;SDS011;61102;51.956;5.878;2022-09-09T08:49:05;4.97;;;0.90;;
72951;SDS011;61102;51.956;5.878;2022-09-09T08:51:39;7.32;;;0.80;;
72951;SDS011;61102;51.956;5.878;2022-09-09T08:54:05;7.28;;;0.88;;
72951;SDS011;61102;51.956;5.878;2022-09-09T08:56:32;5.05;;;0.57;;
72951;SDS011;61102;51.956;5.878;2022-09-09T08:59:01;4.95;;;0.70;;
72951;SDS011;61102;51.956;5.878;2022-09-09T09:12:57;6.05;;;0.80;;
72951;SDS011;61102;51.956;5.878;2022-09-09T09:15:25;6.32;;;1.00;;
72951;SDS011;61102;51.956;5.878;2022-09-09T09:17:56;7.65;;;0.80;;
72951;SDS011;61102;51.956;5.878;2022-09-09T09:20:30;2.92;;;0.60;;
72951;SDS011;61102;51.956;5.878;2022-09-09T09:23:13;4.72;;;0.70;;
72951;SDS011;61102;51.956;5.878;2022-09-09T09:25:46;4.03;;;0.60;;
72951;SDS011;61102;51.956;5.878;2022-09-09T09:28:17;5.63;;;0.82;;
72951;SDS011;61102;51.956;5.878;2022-09-09T09:33:23;5.00;;;0.52;;
72951;SDS011;61102;51.956;5.878;2022-09-09T09:35:55;3.75;;;0.65;;
72951;SDS011;61102;51.956;5.878;2022-09-09T09:38:22;4.88;;;0.52;;
72951;SDS011;61102;51.956;5.878;2022-09-09T09:40:58;3.97;;;0.80;;
72951;SDS011;61102;51.956;5.878;2022-09-09T09:43:30;4.00;;;0.55;;
72951;SDS011;61102;51.956;5.878;2022-09-09T09:46:05;8.30;;;0.90;;
72951;SDS011;61102;51.956;5.878;2022-09-09T09:51:27;4.80;;;0.60;;
72951;SDS011;61102;51.956;5.878;2022-09-09T09:54:02;7.65;;;0.90;;
72951;SDS011;61102;51.956;5.878;2022-09-09T09:56:36;7.53;;;0.90;;
72951;SDS011;61102;51.956;5.878;2022-09-09T09:59:04;4.75;;;1.23;;
72951;SDS011;61102;51.956;5.878;2022-09-09T10:01:50;8.50;;;1.15;;
72951;SDS011;61102;51.956;5.878;2022-09-09T10:04:19;6.15;;;0.80;;
72951;SDS011;61102;51.956;5.878;2022-09-09T10:06:51;4.82;;;0.80;;
72951;SDS011;61102;51.956;5.878;2022-09-09T10:09:24;3.83;;;0.80;;
72951;SDS011;61102;51.956;5.878;2022-09-09T10:11:55;4.38;;;0.70;;
72951;SDS011;61102;51.956;5.878;2022-09-09T10:17:28;6.88;;;0.80;;
72951;SDS011;61102;51.956;5.878;2022-09-09T10:22:35;3.35;;;0.60;;
72951;SDS011;61102;51.956;5.878;2022-09-09T10:25:17;2.40;;;0.45;;
72951;SDS011;61102;51.956;5.878;2022-09-09T10:33:50;6.07;;;0.77;;
72951;SDS011;61102;51.956;5.878;2022-09-09T10:36:24;5.03;;;0.75;;
72951;SDS011;61102;51.956;5.878;2022-09-09T10:39:03;6.95;;;0.90;;
72951;SDS011;61102;51.956;5.878;2022-09-09T10:41:56;5.68;;;0.90;;
72951;SDS011;61102;51.956;5.878;2022-09-09T10:55:41;4.90;;;0.60;;
72951;SDS011;61102;51.956;5.878;2022-09-09T10:58:23;4.72;;;0.55;;
72951;SDS011;61102;51.956;5.878;2022-09-09T11:00:56;7.10;;;0.80;;
72951;SDS011;61102;51.956;5.878;2022-09-09T11:08:37;7.65;;;0.98;;
72951;SDS011;61102;51.956;5.878;2022-09-09T11:11:15;6.60;;;0.80;;
72951;SDS011;61102;51.956;5.878;2022-09-09T11:19:41;7.05;;;0.80;;
72951;SDS011;61102;51.956;5.878;2022-09-09T11:22:22;5.22;;;0.80;;
72951;SDS011;61102;51.956;5.878;2022-09-09T11:25:01;6.15;;;0.90;;
72951;SDS011;61102;51.956;5.878;2022-09-09T11:30:22;6.90;;;0.88;;
72951;SDS011;61102;51.956;5.878;2022-09-09T11:43:29;5.43;;;0.80;;
72951;SDS011;61102;51.956;5.878;2022-09-09T11:45:59;4.63;;;0.77;;
72951;SDS011;61102;51.956;5.878;2022-09-09T11:48:29;4.82;;;0.65;;
72951;SDS011;61102;51.956;5.878;2022-09-09T11:51:03;4.63;;;0.60;;
72951;SDS011;61102;51.956;5.878;2022-09-09T11:53:31;4.78;;;0.82;;
72951;SDS011;61102;51.956;5.878;2022-09-09T11:56:01;3.58;;;0.52;;
72951;SDS011;61102;51.956;5.878;2022-09-09T11:58:53;4.90;;;0.70;;
72951;SDS011;61102;51.956;5.878;2022-09-09T12:01:45;4.78;;;0.70;;
72951;SDS011;61102;51.956;5.878;2022-09-09T12:04:26;3.67;;;0.90;;
72951;SDS011;61102;51.956;5.878;2022-09-09T12:06:58;3.72;;;0.60;;
72951;SDS011;61102;51.956;5.878;2022-09-09T12:09:33;4.95;;;0.82;;
72951;SDS011;61102;51.956;5.878;2022-09-09T12:12:21;5.75;;;0.90;;
72951;SDS011;61102;51.956;5.878;2022-09-09T12:20:14;3.60;;;0.60;;
72951;SDS011;61102;51.956;5.878;2022-09-09T12:22:56;3.70;;;0.80;;
72951;SDS011;61102;51.956;5.878;2022-09-09T12:28:44;2.30;;;0.60;;
72951;SDS011;61102;51.956;5.878;2022-09-09T12:34:14;4.88;;;0.70;;
72951;SDS011;61102;51.956;5.878;2022-09-09T12:36:48;4.93;;;0.90;;
72951;SDS011;61102;51.956;5.878;2022-09-09T12:39:28;3.08;;;0.60;;
72951;SDS011;61102;51.956;5.878;2022-09-09T12:41:59;2.92;;;0.70;;
72951;SDS011;61102;51.956;5.878;2022-09-09T12:44:25;6.07;;;0.90;;
72951;SDS011;61102;51.956;5.878;2022-09-09T12:46:54;4.25;;;0.70;;
72951;SDS011;61102;51.956;5.878;2022-09-09T12:49:24;4.10;;;0.60;;
72951;SDS011;61102;51.956;5.878;2022-09-09T12:52:04;3.22;;;0.50;;
72951;SDS011;61102;51.956;5.878;2022-09-09T12:54:35;3.85;;;0.55;;
72951;SDS011;61102;51.956;5.878;2022-09-09T12:57:03;3.58;;;0.70;;
72951;SDS011;61102;51.956;5.878;2022-09-09T12:59:37;2.58;;;0.60;;
72951;SDS011;61102;51.956;5.878;2022-09-09T13:02:18;2.85;;;0.63;;
72951;SDS011;61102;51.956;5.878;2022-09-09T13:04:46;4.95;;;0.70;;
72951;SDS011;61102;51.956;5.878;2022-09-09T13:07:13;4.78;;;0.80;;
72951;SDS011;61102;51.956;5.878;2022-09-09T13:09:42;2.40;;;0.50;;
72951;SDS011;61102;51.956;5.878;2022-09-09T13:12:14;5.57;;;0.80;;
72951;SDS011;61102;51.956;5.878;2022-09-09T13:14:43;3.47;;;0.68;;
72951;SDS011;61102;51.956;5.878;2022-09-09T13:17:20;2.70;;;0.60;;
72951;SDS011;61102;51.956;5.878;2022-09-09T13:19:48;4.43;;;0.70;;
72951;SDS011;61102;51.956;5.878;2022-09-09T13:22:37;3.83;;;0.70;;
72951;SDS011;61102;51.956;5.878;2022-09-09T13:27:40;2.58;;;0.50;;
72951;SDS011;61102;51.956;5.878;2022-09-09T13:30:21;1.58;;;0.47;;
72951;SDS011;61102;51.956;5.878;2022-09-09T13:35:47;3.83;;;0.70;;
72951;SDS011;61102;51.956;5.878;2022-09-09T13:38:25;4.03;;;0.73;;
72951;SDS011;61102;51.956;5.878;2022-09-09T13:41:19;3.67;;;0.60;;
72951;SDS011;61102;51.956;5.878;2022-09-09T13:43:47;4.75;;;0.60;;
72951;SDS011;61102;51.956;5.878;2022-09-09T13:46:47;6.05;;;0.93;;
72951;SDS011;61102;51.956;5.878;2022-09-09T13:51:35;2.42;;;0.50;;
72951;SDS011;61102;51.956;5.878;2022-09-09T13:56:37;1.52;;;0.50;;
72951;SDS011;61102;51.956;5.878;2022-09-09T13:59:05;4.82;;;0.80;;
72951;SDS011;61102;51.956;5.878;2022-09-09T14:01:36;3.35;;;0.60;;
72951;SDS011;61102;51.956;5.878;2022-09-09T14:04:03;5.88;;;0.88;;
72951;SDS011;61102;51.956;5.878;2022-09-09T14:06:31;2.72;;;0.57;;
72951;SDS011;61102;51.956;5.878;2022-09-09T14:08:58;3.10;;;0.52;;
72951;SDS011;61102;51.956;5.878;2022-09-09T14:11:24;1.98;;;0.43;;
72951;SDS011;61102;51.956;5.878;2022-09-09T14:13:50;5.60;;;0.57;;
72951;SDS011;61102;51.956;5.878;2022-09-09T14:16:17;2.97;;;0.50;;
72951;SDS011;61102;51.956;5.878;2022-09-09T14:18:44;3.42;;;0.55;;
72951;SDS011;61102;51.956;5.878;2022-09-09T14:21:11;7.03;;;0.80;;
72951;SDS011;61102;51.956;5.878;2022-09-09T14:23:37;3.97;;;0.50;;
72951;SDS011;61102;51.956;5.878;2022-09-09T14:26:07;3.72;;;0.60;;
72951;SDS011;61102;51.956;5.878;2022-09-09T14:31:06;1.52;;;0.32;;
72951;SDS011;61102;51.956;5.878;2022-09-09T14:33:33;4.55;;;0.60;;
72951;SDS011;61102;51.956;5.878;2022-09-09T14:38:31;2.53;;;0.50;;
72951;SDS011;61102;51.956;5.878;2022-09-09T14:41:00;3.55;;;0.40;;
72951;SDS011;61102;51.956;5.878;2022-09-09T14:43:28;4.97;;;0.50;;
72951;SDS011;61102;51.956;5.878;2022-09-09T14:45:55;1.70;;;0.40;;
72951;SDS011;61102;51.956;5.878;2022-09-09T14:48:21;2.35;;;0.60;;
72951;SDS011;61102;51.956;5.878;2022-09-09T14:50:47;3.88;;;0.50;;
72951;SDS011;61102;51.956;5.878;2022-09-09T14:53:15;3.13;;;0.55;;
72951;SDS011;61102;51.956;5.878;2022-09-09T14:55:42;2.50;;;0.50;;
72951;SDS011;61102;51.956;5.878;2022-09-09T14:58:08;4.35;;;0.60;;
72951;SDS011;61102;51.956;5.878;2022-09-09T15:00:34;3.30;;;0.60;;
72951;SDS011;61102;51.956;5.878;2022-09-09T15:03:01;3.63;;;0.50;;
72951;SDS011;61102;51.956;5.878;2022-09-09T15:07:53;3.03;;;0.52;;
72951;SDS011;61102;51.956;5.878;2022-09-09T15:10:19;3.05;;;0.60;;
72951;SDS011;61102;51.956;5.878;2022-09-09T15:12:46;3.65;;;0.65;;
72951;SDS011;61102;51.956;5.878;2022-09-09T15:15:12;4.03;;;0.50;;
72951;SDS011;61102;51.956;5.878;2022-09-09T15:17:38;2.80;;;0.50;;
72951;SDS011;61102;51.956;5.878;2022-09-09T15:20:04;3.97;;;0.52;;
72951;SDS011;61102;51.956;5.878;2022-09-09T15:22:31;2.08;;;0.52;;
72951;SDS011;61102;51.956;5.878;2022-09-09T15:24:57;3.38;;;0.50;;
72951;SDS011;61102;51.956;5.878;2022-09-09T15:27:23;2.63;;;0.40;;
72951;SDS011;61102;51.956;5.878;2022-09-09T15:29:51;2.58;;;0.35;;
72951;SDS011;61102;51.956;5.878;2022-09-09T15:32:18;2.45;;;0.50;;
72951;SDS011;61102;51.956;5.878;2022-09-09T15:34:44;2.95;;;0.43;;
72951;SDS011;61102;51.956;5.878;2022-09-09T15:37:10;6.40;;;0.50;;
72951;SDS011;61102;51.956;5.878;2022-09-09T15:39:39;3.00;;;0.40;;
72951;SDS011;61102;51.956;5.878;2022-09-09T15:42:06;1.92;;;0.70;;
72951;SDS011;61102;51.956;5.878;2022-09-09T15:44:40;6.40;;;2.42;;
72951;SDS011;61102;51.956;5.878;2022-09-09T15:47:09;2.58;;;0.70;;
72951;SDS011;61102;51.956;5.878;2022-09-09T15:49:38;3.38;;;0.65;;
72951;SDS011;61102;51.956;5.878;2022-09-09T15:52:04;2.42;;;0.30;;
72951;SDS011;61102;51.956;5.878;2022-09-09T15:54:31;3.05;;;0.50;;
72951;SDS011;61102;51.956;5.878;2022-09-09T15:57:00;2.65;;;0.60;;
72951;SDS011;61102;51.956;5.878;2022-09-09T15:59:28;3.90;;;0.60;;
72951;SDS011;61102;51.956;5.878;2022-09-09T16:01:56;4.40;;;0.70;;
72951;SDS011;61102;51.956;5.878;2022-09-09T16:04:23;3.08;;;0.55;;
72951;SDS011;61102;51.956;5.878;2022-09-09T16:06:50;6.53;;;1.33;;
72951;SDS011;61102;51.956;5.878;2022-09-09T16:09:18;2.17;;;0.40;;
72951;SDS011;61102;51.956;5.878;2022-09-09T16:11:44;1.88;;;0.52;;
72951;SDS011;61102;51.956;5.878;2022-09-09T16:14:12;1.25;;;0.30;;
72951;SDS011;61102;51.956;5.878;2022-09-09T16:19:06;1.02;;;0.40;;
72951;SDS011;61102;51.956;5.878;2022-09-09T16:21:36;2.42;;;0.50;;
72951;SDS011;61102;51.956;5.878;2022-09-09T16:24:05;1.50;;;0.40;;
72951;SDS011;61102;51.956;5.878;2022-09-09T16:26:33;1.35;;;0.28;;
72951;SDS011;61102;51.956;5.878;2022-09-09T16:29:01;0.93;;;0.20;;
72951;SDS011;61102;51.956;5.878;2022-09-09T16:31:29;1.75;;;0.35;;
72951;SDS011;61102;51.956;5.878;2022-09-09T16:33:56;1.90;;;0.30;;
72951;SDS011;61102;51.956;5.878;2022-09-09T16:36:23;2.15;;;0.45;;
72951;SDS011;61102;51.956;5.878;2022-09-09T16:38:54;2.00;;;0.50;;
72951;SDS011;61102;51.956;5.878;2022-09-09T16:41:23;2.83;;;0.43;;
72951;SDS011;61102;51.956;5.878;2022-09-09T16:43:53;1.33;;;0.30;;
72951;SDS011;61102;51.956;5.878;2022-09-09T16:46:19;2.08;;;0.40;;
72951;SDS011;61102;51.956;5.878;2022-09-09T16:48:47;1.10;;;0.30;;
72951;SDS011;61102;51.956;5.878;2022-09-09T16:51:16;2.38;;;0.50;;
72951;SDS011;61102;51.956;5.878;2022-09-09T16:53:43;1.85;;;0.40;;
72951;SDS011;61102;51.956;5.878;2022-09-09T16:56:11;3.40;;;0.47;;
72951;SDS011;61102;51.956;5.878;2022-09-09T16:58:42;1.80;;;0.40;;
72951;SDS011;61102;51.956;5.878;2022-09-09T17:01:09;2.38;;;0.20;;
72951;SDS011;61102;51.956;5.878;2022-09-09T17:03:40;0.90;;;0.30;;
72951;SDS011;61102;51.956;5.878;2022-09-09T17:08:37;1.42;;;0.40;;
72951;SDS011;61102;51.956;5.878;2022-09-09T17:11:11;2.20;;;0.30;;
72951;SDS011;61102;51.956;5.878;2022-09-09T17:13:42;1.60;;;0.50;;
72951;SDS011;61102;51.956;5.878;2022-09-09T17:16:09;1.27;;;0.38;;
72951;SDS011;61102;51.956;5.878;2022-09-09T17:18:35;2.80;;;0.45;;
72951;SDS011;61102;51.956;5.878;2022-09-09T17:21:03;1.90;;;0.60;;
72951;SDS011;61102;51.956;5.878;2022-09-09T17:23:32;1.40;;;0.30;;
72951;SDS011;61102;51.956;5.878;2022-09-09T17:31:03;2.03;;;0.30;;
72951;SDS011;61102;51.956;5.878;2022-09-09T17:33:32;1.38;;;0.30;;
72951;SDS011;61102;51.956;5.878;2022-09-09T17:36:06;0.60;;;0.30;;
72951;SDS011;61102;51.956;5.878;2022-09-09T17:38:34;1.63;;;0.57;;
72951;SDS011;61102;51.956;5.878;2022-09-09T17:41:04;1.77;;;0.40;;
72951;SDS011;61102;51.956;5.878;2022-09-09T17:43:33;0.93;;;0.30;;
72951;SDS011;61102;51.956;5.878;2022-09-09T17:48:34;2.00;;;0.40;;
72951;SDS011;61102;51.956;5.878;2022-09-09T17:51:06;0.70;;;0.30;;
72951;SDS011;61102;51.956;5.878;2022-09-09T17:53:38;1.40;;;0.30;;
72951;SDS011;61102;51.956;5.878;2022-09-09T17:56:06;1.25;;;0.40;;
72951;SDS011;61102;51.956;5.878;2022-09-09T17:58:33;1.30;;;0.30;;
72951;SDS011;61102;51.956;5.878;2022-09-09T18:01:02;1.02;;;0.30;;
72951;SDS011;61102;51.956;5.878;2022-09-09T18:03:35;2.20;;;0.55;;
72951;SDS011;61102;51.956;5.878;2022-09-09T18:06:06;1.10;;;0.38;;
72951;SDS011;61102;51.956;5.878;2022-09-09T18:08:35;1.60;;;0.50;;
72951;SDS011;61102;51.956;5.878;2022-09-09T18:11:02;1.30;;;0.40;;
72951;SDS011;61102;51.956;5.878;2022-09-09T18:13:28;1.60;;;0.35;;
72951;SDS011;61102;51.956;5.878;2022-09-09T18:15:54;2.30;;;0.63;;